Trail Quillan - 22/03/2015

12,5km / 400mD+


Pl Do. Nom - Surname Prénom - Name S-Cat /cat Club - Team TEMPS - Time Km/h /sx
1 685 BRUNEAU MARIUS MSE 1   00:55:42 13,5 1
2 501 GIRO MARCELIN MSE 2 AC LIMOUX 00:55:59 13,4 2
3 591 MONNEREAU FLORIAN MSE 3 TEAM RRF 00:56:09 13,4 3
4 765 TOURNIER YAN MSE 4 AC LIMOUX 00:56:13 13,3 4
5 739 SOTOCA SÉBASTIEN MJU 1 MIZUNO 00:57:51 13,0 5
6 550 COUTAREL JEROME MV1 1 RUNNING 66 00:58:04 12,9 6
7 574 RIVALS BRUNO MV1 2   00:59:46 12,5 7
8 622 DURBIANO ROMAIN MSE 5 FOULÉES DU SOU 01:00:09 12,5 8
9 617 AUGÉ JULIEN MES 1 VO2 MAX/ TEAM DECATLHON FOIX 01:00:31 12,4 9
10 738 ARNAUD MICHEL MV1 3 SENTIER LIBRE 01:01:28 12,2 10
11 661 SERRANO MICKAËL MJU 2 HAUT LANGUEDOC AVENTURE 01:02:00 12,1 11
12 557 BURLAND FRANCK MV2 1 LES LACETS DEFAITS 01:03:04 11,9 12
13 777 BIARD ANTOINE MES 2 SPIRIDON PAYS D'OLMES 01:03:15 11,9 13
14 581 BARON VINCENT MSE 6 BOJOS DE MUNTANYA 01:03:16 11,9 14
15 511 ROUZAUD BÉRANGER MV1 4 TOP CHRONO 11 01:03:36 11,8 15
16 566 KAUFFMANN FRANCIS MV1 5   01:03:39 11,8 16
17 593 DEVRIESE JOCELYN MSE 7 LES FOULÉES DU SOU 01:04:52 11,6 17
18 592 PHILIPPE VINCENT MV1 6   01:04:53 11,6 18
19 774 BENET GILBERT MV2 2   01:05:03 11,5 19
20 768 MARCEROU PASCAL MSE 8 LES FOULEES DU SOU 01:05:50 11,4 20
21 626 ZANIN MARION FSE 1 LES FOULEES DU SOU 01:05:52 11,4 1
22 644 BOUYGUES ANDRÉAS MJU 3   01:05:55 11,4 21
23 528 DUHAMEL MIKE MSE 9 TEAM TOP CHRONO 11 01:06:02 11,4 22
24 642 BOULEAU CLÉMENT MES 3 TCC CARCASSONNE 01:06:08 11,3 23
25 719 MOUNIÉ MANUEL MSE 10 BOJOS DE MUNTANYA 01:06:13 11,3 24
26 743 ROUCHON YVES MSE 11   01:06:40 11,2 25
27 536 MORA FABIEN MSE 12 LIMOUX TRIATHLON 01:06:42 11,2 26
28 784 BIRBÈS MARC MSE 13   01:07:46 11,1 27
29 580 CROVELLO OLIVIER MSE 14 POUMPILS DU CABARDES 01:08:05 11,0 28
30 674 LESUR FREDERIC MSE 15 LES LACETS DEFAITS 01:09:10 10,8 29
31 728 MARTINEZ LUCAS MCA 1 ACPAgde 01:09:16 10,8 30
32 502 STUTTGEN MARC MSE 16 OVERSTEAM 01:09:45 10,8 31
33 584 PINAUD GUILLAUME MSE 17 SPIRIDON CLUB DU PAYS D'OLMES 01:10:23 10,7 32
34 665 BARBIS CHRISTOPHE MV1 7 LES FOULEES DU SOU 01:10:24 10,7 33
35 545 SCHULZ LAURENT MV1 8   01:10:30 10,6 34
36 587 MERIC VINVENT MSE 18   01:10:34 10,6 35
37 733 MAZAGOT PIERRE-ALEXIS MSE 19 GRATELOUP VC 01:11:27 10,5 36
38 560 LIN HI BETTINA FSE 2   01:11:27 10,5 2
39 670 HERVE ANDRE MV1 9   01:11:30 10,5 37
40 694 MARTIGNOLES RENAUD MSE 20   01:12:24 10,4 38
41 680 FAVIER JEAN-MICHEL MV2 3 TRI CLUB CARCASSONNAIS 01:12:27 10,4 39
42 576 CAZALS LAURENT MV1 10   01:12:29 10,3 40
43 572 PHILOMIN CAROLE FV1 1 LES FOULÉES DU SOU 01:12:36 10,3 3
44 564 MARTEAU REMY MSE 21   01:12:43 10,3 41
45 559 MONTESSUY FRANCK MV1 11   01:13:10 10,3 42
46 598 FIOL JORIS MSE 22   01:14:27 10,1 43
47 597 FIOL LUCAS MES 4   01:14:27 10,1 44
48 562 SARDA FABRICE MV1 12   01:14:29 10,1 45
49 740 MEDVES CHRISTIAN MV1 13   01:14:41 10,0 46
50 684 JEAN JACQUES MV2 4 LES POUMPILS DU CABARDES 01:14:45 10,0 47
51 531 COMBES CLAUDE-CORINE FV2 1   01:14:49 10,0 4
52 649 ROMERA JÉRÔME MSE 23   01:15:14 10,0 48
53 599 BRACONNIER THEO MES 5   01:15:34 9,9 49
54 775 NUCCI BASTIAN MSE 24   01:16:16 9,8 50
55 609 DEWAVRIN GUILLAUME MES 6   01:16:19 9,8 51
56 645 AVILES ROMAN MES 7 SPIRIDON CLUB DU PAYS D'OLMES 01:16:22 9,8 52
57 623 BROUARD CLAUDE MV3 1 BOJOS DE MUNTANYA 01:16:23 9,8 53
58 778 MUCCHIUTTI JONAH MJU 4 CASTRES ATHLÉTISME 01:16:31 9,8 54
59 567 MORENO EUGENE MV2 5 CLUB ATLETISMO ALBACETE 01:16:39 9,8 55
60 628 GUERIN MARIUS MCA 2   01:16:40 9,8 56
61 594 NAVARRO TONY MSE 25   01:16:42 9,8 57
62 668 CARBONELL OLIVIER MV2 6   01:16:50 9,8 58
63 595 CALVET DAVID MSE 26   01:16:53 9,8 59
64 677 GRILLERES NICOLAS MV2 7   01:16:54 9,8 60
65 702 CHOURREAU GAEL MSE 27   01:17:03 9,7 61
66 583 FAVENNEC ERWAN MV1 14 ATHLETIC CLUB AUTERIVAIN 01:17:18 9,7 62
67 582 LOT PATRICK MV2 8 POUMPILS DU CABARDES 01:17:23 9,7 63
68 776 TRINCAZ CARINE FV1 2 LES LACETS DEFAITS 01:17:23 9,7 5
69 654 LABESSOUILLE RENAUD MSE 28   01:17:31 9,7 64
70 701 VIALETTES ADRIEN MES 8   01:17:32 9,7 65
71 755 CESSOT BENJAMIN MSE 29   01:17:43 9,6 66
72 634 LARDIES DENIS MV2 9   01:17:49 9,6 67
73 630 GINESTE PASCAL MSE 30   01:17:55 9,6 68
74 535 LOPEZ OLIVIER MSE 31   01:17:55 9,6 69
75 558 MICAS NICOLAS MSE 32 SPIRIDON CLUB DU PAYS D'OLMES 01:17:58 9,6 70
76 651 PICKERING ANN FV1 3   01:18:11 9,6 6
77 783 DE VIDI BENJAMIN MSE 33 LES FOULÉES DU SOU 01:18:18 9,6 71
78 695 SANMARTIN CÉDRIC MSE 34 TOULOUSE TRIATHLON 01:18:19 9,6 72
79 635 VINCHES FREDERIC MV2 10   01:18:23 9,6 73
80 715 MALITOWSKI FRANCK MSE 35 TRIATHLON CARCASSONNE 01:19:11 9,5 74
81 773 CHAN SHUN CARINE FSE 3   01:19:25 9,4 7
82 532 CAMPOS MARCEL MV2 11   01:19:45 9,4 75
83 764 GAUBERT CLÉMENT MSE 36   01:19:46 9,4 76
84 761 SALVAT JACQUES MV1 15   01:20:09 9,4 77
85 658 PUGINIER SÉBASTIEN MSE 37 ASEC 01:20:12 9,4 78
86 631 FOUSSARIGUES MEHDI MSE 38   01:20:23 9,3 79
87 729 TIQUET CEDRIC MSE 39 TREBES TRIATHLON 01:20:47 9,3 80
88 553 MODAT ANNE FSE 4 RUNNING 66 01:21:04 9,3 8
89 720 RODRIGUEZ VINCENT MSE 40   01:21:12 9,2 81
90 517 VIGUIER JULIEN MSE 41   01:21:27 9,2 82
91 514 RENART STÉPHANE MSE 42   01:21:28 9,2 83
92 686 LÉONARDI GUILLAUME MV1 16   01:21:34 9,2 84
93 534 BONTEMPS MARC MV1 17   01:21:45 9,2 85
94 608 BOUSQUET GAUTHIER MES 9   01:21:49 9,2 86
95 725 GABIGNAUD MATHIEU MSE 43   01:21:50 9,2 87
96 624 JALBAUD CHRISTOPHE MV1 18   01:21:59 9,1 88
97 542 FELDKIRCHNER CAROLINE FSE 5 FOULEES DU SOU 01:22:21 9,1 9
98 637 SANCHEZ THÉO MCA 3 BOJOS DE MUNTANYA 01:22:31 9,1 89
99 698 BUVAL FELIX MV2 12 POUMPILS DU CABARDES 01:22:38 9,1 90
100 570 PETIT TONY MV1 19   01:22:52 9,0 91
101 640 VALDEVIT ALAIN MV2 13   01:22:54 9,0 92
102 737 MORIN JEAN-LUC MV1 20   01:22:54 9,0 93
103 602 PIEDIGROSSI CLÉMENT MES 10 SPIRIDON CLUB DU PAYS D'OLMES 01:22:57 9,0 94
104 653 LEAL JÉRÉMY MSE 44   01:23:02 9,0 95
105 779 SÉROT JULIEN MSE 45 FOULEE DU SOU 01:23:11 9,0 96
106 618 FREMONT MAGALI FV1 4 BOJOS DE MUNTANYA 01:24:01 8,9 10
107 734 MARTINEZ MAGALIE FSE 6   01:24:02 8,9 11
108 549 SERRECOURT ADELINE FSE 7   01:24:09 8,9 12
109 663 CONSTANS DAMIEN MSE 46   01:25:14 8,8 97
110 735 RAYNAUD REMY MSE 47   01:25:33 8,8 98
111 757 ESTEVE OLIVIER MSE 48   01:25:36 8,8 99
112 657 FRANCOIS GUILLAUME MSE 49   01:25:40 8,8 100
113 512 CLAUZEL BERNARD MV2 14 SPIRIDON DU PAYS D'OLMES 01:25:43 8,7 101
114 538 CROS ADELINE FV2 2   01:25:45 8,7 13
115 639 SENIE BRUNO MSE 50   01:25:47 8,7 102
116 605 MASANET CHRISTINE FV1 5   01:26:01 8,7 14
117 556 GRILLERES YANNICK MV1 21   01:26:38 8,7 103
118 656 BONNIN MICHEL MV4 1 ACNM - NARBONNE 01:26:47 8,6 104
119 569 CROUZAL CHRYSLAINE FV1 6 POUMPILS DU CABARDES 01:26:50 8,6 15
120 520 BARTHELEMY LYDIA FV2 3   01:27:00 8,6 16
121 707 ORRIT CYRIL MSE 51   01:27:13 8,6 105
122 577 ESCOFFRES THIERRY MV1 22   01:27:21 8,6 106
123 518 EXPOSITO BENOIT MSE 52   01:27:43 8,5 107
124 718 OLIVE JEAN-MARC MV2 15   01:28:04 8,5 108
125 780 BOUFFIL LAETITIA FSE 8   01:28:11 8,5 17
126 713 ORTEGA DOMINIQUE FV1 7 RAC SAINT ESTEVE 01:28:16 8,5 18
127 745 ARMAGNAC REMI MSE 53   01:28:31 8,5 109
128 554 PECOUT STEPHANIE FSE 9 SPIRIDON PAYS D'OLMES 01:28:37 8,5 19
129 552 GENDRE PASCAL MV2 16   01:28:51 8,4 110
130 689 MCDONNELL CATHERINE FV1 8   01:29:04 8,4 20
131 540 POTTS CAROLYN FV3 1 FOULEE DES 3 QUILLES 01:29:13 8,4 21
132 771 LANGLADE VERONIQUE FV2 4   01:29:15 8,4 22
133 516 CANAVY HAUTEFORT PASCALE FSE 10   01:29:18 8,4 23
134 751 BOURGEOIS LANDRY MSE 54 NON-LICENCIE 01:29:28 8,4 111
135 708 FERNANDES JOSÉ MV3 2 ACFC 01:29:50 8,3 112
136 699 VEYRADIER NOËL MV3 3 ACP PAMIERS 01:30:00 8,3 113
137 508 QUEGUINER PATRICK MV1 23   01:30:02 8,3 114
138 730 LEGRAND CLAIRE FSE 11   01:30:06 8,3 24
139 601 BONELL ALEXANDRE MES 11 CLUB TRIATLO SERRADELLS 01:30:10 8,3 115
140 568 GIRARD GRÉGORY MV1 24   01:30:52 8,3 116
141 636 JAMMET PIERRE MSE 55   01:31:01 8,2 117
142 575 GOURDON JACQUES MV1 25   01:31:07 8,2 118
143 537 CROS MALAURY FES 1   01:31:15 8,2 25
144 676 AMANS FREDERIC MV1 26   01:31:39 8,2 119
145 754 COULON FANNY FSE 12   01:31:44 8,2 26
146 675 CAPEL FLORENCE FSE 13   01:31:47 8,2 27
147 627 CAMBRIELS JACQUES MV1 27 CAROUX- X- TRAIL 01:32:06 8,1 120
148 660 PERUCH GILLES MV2 17 ACFC 01:32:07 8,1 121
149 543 PINAUD NATACHA FV1 9 SPIRIDON DU PAYS D OLMES 01:32:08 8,1 28
150 662 VILLÉ PEGGY FSE 14   01:32:42 8,1 29
151 717 HARAUT SEBASTIEN MSE 56 DUN (09) 01:33:00 8,1 122
152 711 VIEU ALAIN MV2 18 DUN (09) 01:33:00 8,1 123
153 679 CHIROUZE ANGELIQUE FV1 10   01:33:04 8,1 30
154 647 FABRE MÉRÉDYTH FV1 11   01:33:14 8,0 31
155 563 SARDA ANNE FV1 12   01:33:27 8,0 32
156 763 SIFFRE SÉBASTIEN MSE 57   01:33:33 8,0 124
157 525 BONO ALEXANDRE MSE 58   01:33:59 8,0 125
158 716 BOTTURA XIRAU NICOLAS MSE 59   01:34:00 8,0 126
159 671 GAUVRIT CAROLE FV1 13   01:34:14 8,0 33
160 526 CHAUSSONNET CHRISTOPHE MV1 28 PORTET ATHLETIC CLUB 01:34:23 7,9 127
161 752 RUMBAU VALÉRIE FSE 15   01:34:56 7,9 34
162 749 CAMBON EDITH FV2 5 SALTARECS 01:35:02 7,9 35
163 766 GARCIA STEPHANE MV1 29 TRAIL TEAM BUCHINOIS 01:35:03 7,9 128
164 747 CASAIL JORIS MES 12   01:35:22 7,9 129
165 688 BAUZA AUDREY FSE 16   01:35:23 7,9 36
166 573 MAURIN ALAIN MV2 19   01:36:12 7,8 130
167 546 CAMBOLIVES KATIA FV1 14   01:36:14 7,8 37
168 732 THYBERT XAVIER MV1 30   01:36:17 7,8 131
169 638 BA GARROS FÉLICIE FV1 15 TOAC ATHLE 01:36:31 7,8 38
170 664 BAIXAS JULIEN MSE 60   01:36:41 7,8 132
171 709 LIMOUZI MARIE-CLAIRE FV3 2 GSE 01:37:00 7,7 39
172 690 BROWN JESSICA FSE 17   01:37:04 7,7 40
173 673 VAYSSIERE JIMMY MV1 31   01:37:04 7,7 133
174 672 BATTY MANUELLA FSE 18   01:37:04 7,7 41
175 769 PANONT SIMONE FV3 3 PACOULIX 01:37:13 7,7 42
176 759 BIAU CEDRIC MSE 61   01:37:14 7,7 134
177 760 HUCHET JULIEN MSE 62   01:37:16 7,7 135
178 527 BEAUCHART STÉPHANE MV1 32   01:37:18 7,7 136
179 697 VERE ANNE FV1 16   01:37:19 7,7 43
180 659 LAYRAL MARIE FV1 17   01:37:24 7,7 44
181 643 GARCIA MYRIAM FV1 18   01:37:24 7,7 45
182 692 GARRABOU SEBASTIEN MSE 63   01:37:47 7,7 137
183 652 SIN LUY-PEAN MV1 33 TEAM OVS TOULOUSE 01:37:58 7,7 138
184 606 SERINET ALEXANDRE MCA 4   01:38:03 7,6 139
185 724 JOULIA MARIE-THERESE FV2 6 PACOULIX 01:38:27 7,6 46
186 693 SALANDINI SEBASTIEN MV1 34   01:38:40 7,6 140
187 529 FLORIDEAU AMELIE FSE 19 SPIRIDON CLUB DU PAYS D'OLMES 01:38:49 7,6 47
188 762 SERINET CAROLINE FV1 19   01:39:12 7,6 48
189 513 BARBAS ALEXANDRA FSE 20 SPIRIDON CLUB DU PAYS D'OLMES 01:39:15 7,6 49
190 678 BARBAS JOSÉ MV2 20 SPIRIDON CLUB DU PAYS D'OLMES 01:39:16 7,6 141
191 687 BRUNEAU ANGÈLE FSE 21   01:39:22 7,5 50
192 646 VARONA MYLÈNE FSE 22   01:39:26 7,5 51
193 700 VEYRADIER JOSETTE FV3 4 ACP PAMIERS 01:39:29 7,5 52
194 748 ALVAREZ ARTHUR MES 13   01:39:29 7,5 142
195 619 PHILIPPE CINDY FSE 23   01:39:33 7,5 53
196 615 ROUSSEL HENRI MV4 2   01:39:55 7,5 143
197 603 FAURÉ LAURENCE FV1 20   01:40:54 7,4 54
198 705 CARPIS FRANCK MV2 21   01:41:19 7,4 144
199 704 REGAZZONI MARC MV1 35   01:41:19 7,4 145
200 767 CASSAGNAUD CEDRIC MSE 64   01:41:19 7,4 146
201 744 HERNANDEZ MARIE FCA 1   01:41:57 7,4 55
202 578 PRAX MANON FSE 24   01:42:06 7,3 56
203 770 PANONT JEAN-PIERRE MV3 4 PACOULIX 01:42:08 7,3 147
204 610 AGOSTO JEANNE FV2 7 PACOULIX 01:42:51 7,3 57
205 590 RUIZ LAETITIA FV1 21   01:42:51 7,3 58
206 611 MORERE JOSEPH MV4 3 PACOULIX 01:42:52 7,3 148
207 600 DUCHATEAU DOMINIQUE MV2 22   01:43:13 7,3 149
208 782 CAMBOLIVES JEAN-PIERRE MV1 36   01:43:13 7,3 150
209 696 BOYER JEAN-PIERRE MV3 5 POUMPIZS DU CABARDES 01:44:10 7,2 151
210 533 BONTEMPS VIRGINIE FV1 22   01:44:15 7,2 59
211 756 VERGÉ PASCALE FV1 23   01:44:15 7,2 60
212 712 MARTIGNOLES PIERRE-ALAIN MSE 65   01:45:51 7,1 152
213 616 FABRE CHRYSTELLE FSE 25   01:45:57 7,1 61
214 666 DIAZ ESQUIROL CHANTAL FV3 5   01:46:13 7,1 62
215 655 TREBAOL CADENAT MARIE-NOELLE FV1 24   01:46:13 7,1 63
216 710 SOULA MICHEL MV2 23 PACOULIX 01:47:23 7,0 153
217 681 HATO BASTIEN MSE 66   01:47:57 6,9 154
218 781 FERNANDEZ ANTOINE MV3 6 PACOULIX 01:48:38 6,9 155
219 650 FAVETTE ERIC MV2 24   01:48:45 6,9 156
220 746 NONG CLÉMENT MJU 5   01:48:45 6,9 157
221 621 MINAUX ISABELLE FV1 25   01:48:57 6,9 64
222 522 ALRIVIE JESSICA FSE 26   01:49:08 6,9 65
223 612 VILLAVERDE ELISABETH FV1 26 PACOULIX 01:50:00 6,8 66
224 607 FERRAND AMANDA FSE 27 WARRIORS TEAM 01:50:01 6,8 67
225 727 STERVINOU NADEGE FES 2   01:50:45 6,8 68
226 772 GOGUET CHAPUIS HENRI MV2 25   01:51:04 6,8 158
227 648 RIFFARD MANON FJU 1   01:53:13 6,6 69
228 588 FOUILLOUX AGNÈS FV2 8   01:53:39 6,6 70
229 524 MATEILLE JEAN-LUC MV2 26   01:54:46 6,5 159
230 731 FOURNIE ROGER MV5 1 MAZERES COURSE PEDESTRE 09 01:55:01 6,5 160
231 726 STERVINOU GAELLE FSE 28 SPIRIDON 01:55:07 6,5 71
232 544 PRATS AURÉLIE FSE 29   01:57:33 6,4 72
233 523 CANAL CÉLINE FSE 30 VO2MAX TARASCON 01:57:58 6,4 73
234 565 KAUFFMANN NATHALIE FV1 27   01:59:25 6,3 74
235 721 CROUÉ NICOLAS MSE 67   02:01:58 6,1 161
236 714 VILLETTE EMMANUEL MV1 37   02:01:59 6,1 162
237 669 ZECCHINI VIVIANE FV2 9   02:02:52 6,1 75
238 736 BONNET BENOIT MSE 68   02:08:57 5,8 163